Time;durP1;ratioP1;P1;durP2;ratioP2;P2;SDS_P1;SDS_P2;PMS_P1;PMS_P2;Temp;Humidity;BMP_temperature;BMP_pressure;BME280_temperature;BME280_humidity;BME280_pressure;Samples;Min_cycle;Max_cycle;Signal;HPM_P1;HPM_P2
2021/09/15 00:02:21;;;;;;;27.13;12.90;;;;;;;14.26;86.59;101164.27;1949643;73;21502;-66
2021/09/15 00:04:50;;;;;;;27.73;12.68;;;;;;;14.25;86.70;101165.19;1949639;73;21129;-66
2021/09/15 00:07:19;;;;;;;29.27;12.03;;;;;;;14.25;86.56;101167.84;1949619;73;21098;-66
2021/09/15 00:09:48;;;;;;;25.17;12.33;;;;;;;14.27;86.32;101166.01;1949677;73;21113;-66
2021/09/15 00:12:17;;;;;;;18.42;10.08;;;;;;;14.26;86.47;101161.63;1949746;73;20999;-66
2021/09/15 00:14:45;;;;;;;15.05;9.58;;;;;;;14.23;86.76;101163.09;1949614;73;21024;-66
2021/09/15 00:17:14;;;;;;;19.48;10.85;;;;;;;14.21;86.63;101165.42;1949669;73;21043;-66
2021/09/15 00:19:43;;;;;;;14.60;10.13;;;;;;;14.18;86.67;101161.11;1949534;73;20996;-66
2021/09/15 00:22:12;;;;;;;21.97;10.15;;;;;;;14.15;86.63;101167.91;1949666;73;21130;-66
2021/09/15 00:24:40;;;;;;;17.77;9.65;;;;;;;14.11;86.66;101170.31;1949716;73;21093;-66
2021/09/15 00:27:09;;;;;;;22.32;11.85;;;;;;;14.11;86.67;101175.61;1949666;73;21498;-66
2021/09/15 00:29:38;;;;;;;19.20;9.95;;;;;;;14.10;86.77;101175.20;1949654;73;21028;-66
2021/09/15 00:32:07;;;;;;;18.77;9.58;;;;;;;14.07;86.91;101178.86;1949473;73;21028;-66
2021/09/15 00:34:36;;;;;;;18.82;10.38;;;;;;;14.05;86.73;101178.52;1949668;73;21461;-66
2021/09/15 00:37:05;;;;;;;18.07;9.75;;;;;;;14.03;86.54;101175.09;1949651;73;21117;-66
2021/09/15 00:39:34;;;;;;;16.15;9.50;;;;;;;14.00;86.49;101179.19;1949589;73;21044;-66
2021/09/15 00:42:02;;;;;;;13.30;8.95;;;;;;;13.94;86.40;101171.06;1949629;73;21102;-66
2021/09/15 00:44:31;;;;;;;15.35;9.23;;;;;;;13.88;86.33;101167.39;1949690;73;21000;-66
2021/09/15 00:47:01;;;;;;;18.50;9.58;;;;;;;13.84;86.47;101166.67;1949643;73;21199;-66
2021/09/15 00:49:29;;;;;;;15.03;8.70;;;;;;;13.81;86.63;101165.48;1949614;73;21023;-66
2021/09/15 00:51:59;;;;;;;16.17;9.85;;;;;;;13.78;86.52;101170.94;1949815;73;21112;-66
2021/09/15 00:54:28;;;;;;;18.82;9.55;;;;;;;13.74;86.50;101171.12;1949722;73;21552;-66
2021/09/15 00:56:57;;;;;;;14.00;9.65;;;;;;;13.73;86.64;101171.59;1949657;73;21490;-66
2021/09/15 00:59:27;;;;;;;18.95;11.15;;;;;;;13.71;86.74;101173.45;1949480;73;21054;-66
2021/09/15 01:01:57;;;;;;;20.70;12.43;;;;;;;13.68;86.89;101176.23;1949625;73;21505;-66
2021/09/15 01:04:26;;;;;;;21.68;13.45;;;;;;;13.63;87.02;101172.92;1949714;73;21047;-66
2021/09/15 01:06:56;;;;;;;25.30;14.87;;;;;;;13.64;87.33;101169.37;1949656;73;21027;-66
2021/09/15 01:09:25;;;;;;;20.12;11.68;;;;;;;13.65;87.21;101171.95;1949603;73;21583;-66
2021/09/15 01:11:56;;;;;;;16.73;8.83;;;;;;;13.65;87.21;101168.45;1949633;73;21093;-67
2021/09/15 01:14:27;;;;;;;21.75;10.23;;;;;;;13.67;87.18;101168.77;1947617;73;21106;-67
2021/09/15 01:17:14;;;;;;;19.85;9.88;;;;;;;13.68;87.17;101172.27;1949598;73;21109;-66
2021/09/15 01:20:01;;;;;;;16.67;9.50;;;;;;;13.64;87.21;101170.69;1949457;73;21127;-67
2021/09/15 01:22:48;;;;;;;34.00;26.55;;;;;;;13.61;87.15;101165.53;1949603;73;21068;-66
2021/09/15 01:25:19;;;;;;;41.85;32.48;;;;;;;13.60;87.17;101167.80;1947098;73;21036;-66
2021/09/15 01:27:52;;;;;;;26.87;18.10;;;;;;;13.60;87.12;101162.50;1944136;73;21116;-66
2021/09/15 01:30:23;;;;;;;23.50;10.82;;;;;;;13.57;87.28;101170.09;1948841;73;21070;-67
2021/09/15 01:32:54;;;;;;;23.75;11.08;;;;;;;13.55;87.35;101181.22;1949336;73;21103;-66
2021/09/15 01:35:24;;;;;;;15.32;9.60;;;;;;;13.54;87.16;101174.22;1949134;73;21049;-66
2021/09/15 01:37:54;;;;;;;21.73;9.98;;;;;;;13.54;87.34;101174.66;1949737;73;21467;-66
2021/09/15 01:40:23;;;;;;;16.17;8.90;;;;;;;13.52;87.37;101174.76;1949629;73;21060;-66
2021/09/15 01:42:52;;;;;;;15.03;8.40;;;;;;;13.50;87.24;101164.23;1949613;73;21099;-67
2021/09/15 01:45:21;;;;;;;14.63;8.43;;;;;;;13.47;87.18;101168.33;1949540;73;21549;-67
2021/09/15 01:47:50;;;;;;;20.32;10.43;;;;;;;13.44;87.08;101163.64;1949619;73;21047;-65
2021/09/15 01:50:19;;;;;;;23.32;11.10;;;;;;;13.40;87.17;101166.88;1949621;73;21117;-65
2021/09/15 01:52:48;;;;;;;19.17;10.32;;;;;;;13.37;87.37;101165.72;1949729;73;21027;-65
2021/09/15 01:55:27;;;;;;;17.73;10.15;;;;;;;13.35;87.40;101166.22;1948090;73;21148;-65
2021/09/15 01:57:58;;;;;;;21.30;9.30;;;;;;;13.33;87.39;101169.39;1945472;73;21054;-66
2021/09/15 02:00:43;;;;;;;19.20;11.10;;;;;;;13.30;87.44;101170.84;1857992;77;21082;-66
2021/09/15 02:03:14;;;;;;;15.15;9.30;;;;;;;13.24;87.40;101169.77;1916936;73;21075;-66
2021/09/15 02:05:44;;;;;;;18.25;10.20;;;;;;;13.19;87.40;101175.27;1947096;73;21059;-66
2021/09/15 02:08:18;;;;;;;21.73;10.70;;;;;;;13.14;87.48;101177.23;1946866;73;21067;-66
2021/09/15 02:10:54;;;;;;;23.65;10.30;;;;;;;13.11;87.62;101174.72;1933402;73;21125;-66
2021/09/15 02:13:24;;;;;;;23.20;12.40;;;;;;;13.11;87.74;101178.69;1949726;73;21483;-66
2021/09/15 02:15:53;;;;;;;22.85;13.68;;;;;;;13.10;87.83;101176.51;1949726;73;21470;-65
2021/09/15 02:18:22;;;;;;;24.37;12.10;;;;;;;13.11;87.92;101170.31;1949529;73;21451;-66
2021/09/15 02:20:55;;;;;;;19.75;11.88;;;;;;;13.14;87.96;101171.95;1947164;73;21425;-65
2021/09/15 02:23:26;;;;;;;24.05;15.55;;;;;;;13.15;87.99;101171.05;1945028;73;21063;-65
2021/09/15 02:26:03;;;;;;;15.78;9.58;;;;;;;13.18;87.93;101162.95;1945277;73;21028;-66
2021/09/15 02:28:36;;;;;;;;;;;;;;;13.20;87.81;101172.16;1949910;73;21146;-66
2021/09/15 02:31:06;;;;;;;19.12;9.90;;;;;;;13.16;87.79;101175.39;1935199;73;20116;-66
2021/09/15 02:33:43;;;;;;;29.80;17.57;;;;;;;13.12;87.70;101186.55;1911472;73;21050;-66
2021/09/15 02:36:13;;;;;;;38.08;22.17;;;;;;;13.08;87.71;101182.33;1947144;73;21077;-65
2021/09/15 02:38:44;;;;;;;31.73;13.50;;;;;;;13.08;87.84;101186.30;1946345;73;21062;-65
2021/09/15 02:41:18;;;;;;;26.48;13.83;;;;;;;13.07;87.76;101185.88;1946565;73;21047;-66
2021/09/15 02:43:48;;;;;;;21.35;11.12;;;;;;;13.06;87.66;101188.15;1946250;73;21505;-66
2021/09/15 02:46:21;;;;;;;23.00;11.03;;;;;;;13.06;87.58;101194.76;1946910;73;21090;-66
2021/09/15 02:49:08;;;;;;;26.80;12.65;;;;;;;13.04;87.50;101196.61;1949489;73;21047;-66
2021/09/15 02:51:38;;;;;;;27.13;10.32;;;;;;;13.03;87.65;101192.23;1945994;73;21062;-66
2021/09/15 02:54:09;;;;;;;20.17;9.58;;;;;;;13.01;87.65;101199.37;1948404;73;21047;-67
2021/09/15 02:56:39;;;;;;;16.02;9.33;;;;;;;12.98;87.57;101195.52;1946274;73;21066;-66
2021/09/15 02:59:18;;;;;;;15.40;8.45;;;;;;;12.93;87.65;101194.41;1945813;73;21052;-66
2021/09/15 03:01:58;;;;;;;19.32;9.88;;;;;;;12.89;87.74;101191.50;1945982;73;21125;-65
2021/09/15 03:04:38;;;;;;;17.10;9.13;;;;;;;12.86;87.78;101194.27;1945221;73;21488;-66
2021/09/15 03:07:08;;;;;;;26.23;9.63;;;;;;;12.88;87.86;101197.70;1946061;73;21052;-66
2021/09/15 03:09:37;;;;;;;16.17;9.23;;;;;;;12.89;87.77;101197.23;1949745;73;21196;-66
2021/09/15 03:12:08;;;;;;;15.32;8.33;;;;;;;12.87;87.71;101201.28;1949637;73;21126;-65
2021/09/15 03:14:37;;;;;;;15.35;9.23;;;;;;;12.84;87.67;101200.08;1949554;73;21055;-66
2021/09/15 03:17:06;;;;;;;16.82;8.75;;;;;;;12.83;87.67;101204.09;1949633;73;21051;-66
2021/09/15 03:19:36;;;;;;;21.68;9.73;;;;;;;12.86;87.74;101211.91;1949618;73;21125;-65
2021/09/15 03:22:05;;;;;;;20.15;13.43;;;;;;;12.89;87.83;101211.77;1949729;73;21048;-65
2021/09/15 03:24:34;;;;;;;19.90;12.10;;;;;;;12.91;87.91;101204.62;1949650;73;21028;-66
2021/09/15 03:27:06;;;;;;;14.23;9.18;;;;;;;12.96;87.85;101215.88;1949790;73;21097;-66
2021/09/15 03:29:35;;;;;;;16.02;7.92;;;;;;;13.00;87.80;101212.17;1949575;73;21052;-66
2021/09/15 03:32:04;;;;;;;16.07;8.05;;;;;;;13.06;87.63;101217.23;1949658;73;21055;-65
2021/09/15 03:34:33;;;;;;;17.48;8.58;;;;;;;13.11;87.43;101218.34;1949802;73;21059;-63
2021/09/15 03:37:03;;;;;;;13.65;8.78;;;;;;;13.21;87.25;101221.01;1949752;73;21090;-64
2021/09/15 03:39:32;;;;;;;19.10;9.83;;;;;;;13.33;87.12;101224.94;1949651;73;21087;-64
2021/09/15 03:42:01;;;;;;;14.70;9.30;;;;;;;13.42;86.98;101223.22;1949596;73;21478;-64
2021/09/15 03:44:32;;;;;;;20.80;9.38;;;;;;;13.54;86.81;101226.25;1949775;73;21040;-64
2021/09/15 03:47:02;;;;;;;12.68;8.33;;;;;;;13.68;86.58;101224.75;1949825;73;21105;-66
2021/09/15 03:49:31;;;;;;;16.25;10.30;;;;;;;13.86;86.23;101223.52;1949919;73;21512;-65
2021/09/15 03:52:00;;;;;;;14.95;8.20;;;;;;;14.04;85.66;101228.45;1949634;73;21024;-66
2021/09/15 03:54:38;;;;;;;;;;;;;;;;;;;;;
2021/09/15 03:57:18;;;;;;;17.17;8.98;;;;;;;14.39;84.76;101229.92;1935021;74;21168;-64
2021/09/15 03:59:47;;;;;;;24.07;12.58;;;;;;;14.62;84.45;101236.32;1935038;74;21464;-65
2021/09/15 04:02:16;;;;;;;21.97;12.53;;;;;;;14.84;83.97;101240.12;1901551;74;21037;-64
2021/09/15 04:04:45;;;;;;;22.42;12.63;;;;;;;15.02;83.33;101241.02;1935086;73;21025;-66
2021/09/15 04:07:13;;;;;;;22.58;10.48;;;;;;;15.26;83.39;101246.03;1935186;74;21022;-65
2021/09/15 04:09:42;;;;;;;14.07;8.03;;;;;;;15.34;82.09;101249.14;1935186;74;21101;-65
2021/09/15 04:12:11;;;;;;;16.07;6.58;;;;;;;15.33;81.67;101248.77;1935239;74;21048;-64
2021/09/15 04:14:41;;;;;;;12.30;6.53;;;;;;;15.35;81.37;101252.67;1935098;74;21087;-65
2021/09/15 04:17:11;;;;;;;16.70;7.45;;;;;;;15.46;81.16;101246.82;1935048;74;21590;-66
2021/09/15 04:19:40;;;;;;;12.47;7.05;;;;;;;15.70;81.05;101250.84;1935119;74;21089;-65
2021/09/15 04:22:16;;;;;;;19.02;6.80;;;;;;;16.02;80.99;101241.66;1935224;74;21146;-65
2021/09/15 04:33:05;;;;;;;9.98;5.45;;;;;;;17.07;78.46;101227.86;1934956;74;21122;-65
2021/09/15 04:35:34;;;;;;;10.43;5.50;;;;;;;17.28;77.61;101230.60;1935035;74;21045;-65
2021/09/15 04:38:03;;;;;;;10.08;5.10;;;;;;;17.46;76.88;101222.45;1935113;74;21541;-65
2021/09/15 04:40:31;;;;;;;8.00;4.85;;;;;;;17.70;76.44;101223.61;1935118;74;21057;-65
2021/09/15 04:43:01;;;;;;;10.25;5.65;;;;;;;17.96;75.77;101234.49;1935164;74;21461;-65
2021/09/15 04:45:30;;;;;;;10.35;4.97;;;;;;;18.25;75.12;101229.16;1935046;74;21468;-65
2021/09/15 04:47:59;;;;;;;12.98;5.22;;;;;;;18.55;74.85;101234.80;1935203;74;21018;-65
2021/09/15 04:50:29;;;;;;;11.45;5.40;;;;;;;18.81;74.68;101232.67;1935133;74;21496;-65
2021/09/15 04:52:58;;;;;;;15.65;6.35;;;;;;;19.10;73.79;101235.19;1934984;74;21112;-65
2021/09/15 04:55:29;;;;;;;11.88;5.10;;;;;;;19.27;72.59;101234.05;1936131;71;21041;-65
2021/09/15 04:57:59;;;;;;;10.68;5.28;;;;;;;19.55;72.15;101230.37;1990155;72;21023;-65
2021/09/15 05:00:28;;;;;;;16.35;5.90;;;;;;;19.88;71.85;101234.81;1990053;72;21477;-65
2021/09/15 05:02:59;;;;;;;13.08;6.05;;;;;;;20.25;71.27;101235.25;1989889;72;21105;-65
2021/09/15 05:05:33;;;;;;;14.45;5.87;;;;;;;20.52;69.54;101231.52;1987749;72;21070;-65
2021/09/15 05:08:02;;;;;;;14.47;5.37;;;;;;;20.70;68.55;101234.70;1990252;72;21088;-65
2021/09/15 05:10:32;;;;;;;10.15;5.25;;;;;;;20.96;68.40;101229.23;1990092;72;21856;-65
2021/09/15 05:13:02;;;;;;;10.28;5.62;;;;;;;21.44;68.40;101226.45;1990193;72;21422;-65
2021/09/15 05:15:31;;;;;;;12.75;6.33;;;;;;;22.00;67.59;101230.20;1990186;72;21042;-65
2021/09/15 05:18:01;;;;;;;12.13;6.00;;;;;;;22.42;66.66;101225.07;1989851;72;21110;-65
2021/09/15 05:20:31;;;;;;;18.23;6.78;;;;;;;22.75;65.31;101224.97;1990150;72;21450;-65
2021/09/15 05:23:01;;;;;;;14.98;6.67;;;;;;;23.06;64.18;101219.75;1990175;72;21046;-65
2021/09/15 05:25:30;;;;;;;14.55;6.62;;;;;;;23.34;62.67;101224.13;1990036;72;21112;-65
2021/09/15 05:27:59;;;;;;;14.68;6.58;;;;;;;23.32;61.83;101222.06;1990096;72;21042;-65
2021/09/15 05:30:28;;;;;;;14.18;6.17;;;;;;;23.40;60.49;101222.25;1989934;72;21112;-66
2021/09/15 05:32:59;;;;;;;15.28;5.78;;;;;;;23.60;61.00;101216.50;1989860;72;21104;-65
2021/09/15 05:35:28;;;;;;;13.28;4.80;;;;;;;23.77;60.07;101216.37;1990246;72;21047;-65
2021/09/15 05:37:58;;;;;;;9.03;4.60;;;;;;;24.12;60.19;101213.78;1989887;72;21473;-65
2021/09/15 05:40:27;;;;;;;7.92;4.70;;;;;;;24.48;59.50;101206.94;1990031;72;21023;-65
2021/09/15 05:42:56;;;;;;;9.05;4.20;;;;;;;24.87;59.12;101206.16;1989970;72;21046;-65
2021/09/15 05:45:25;;;;;;;12.05;4.60;;;;;;;25.28;58.28;101201.97;1990099;72;21466;-65
2021/09/15 05:47:55;;;;;;;11.43;4.75;;;;;;;25.48;57.04;101203.62;1990155;72;21454;-65
2021/09/15 05:50:24;;;;;;;9.65;5.00;;;;;;;25.90;56.87;101203.70;1990078;72;21090;-65
2021/09/15 05:52:53;;;;;;;14.80;5.60;;;;;;;26.26;56.75;101210.56;1990188;72;21078;-65
2021/09/15 06:15:33;;;;;;;;;;;;;;;28.24;47.49;101209.25;1939420;74;21554;-63
2021/09/15 06:18:02;;;;;;;12.33;4.72;;;;;;;28.68;49.05;101210.89;1936619;73;20182;-64
2021/09/15 06:20:32;;;;;;;9.20;4.00;;;;;;;28.97;48.05;101209.56;1958118;73;21219;-65
2021/09/15 06:23:06;;;;;;;5.20;3.35;;;;;;;29.20;47.19;101205.70;1911635;73;21489;-65
2021/09/15 06:25:37;;;;;;;8.90;3.67;;;;;;;29.04;46.23;101201.09;1935606;73;21511;-64
2021/09/15 06:28:06;;;;;;;9.95;3.60;;;;;;;29.14;46.42;101200.46;1951542;73;21060;-64
2021/09/15 06:30:36;;;;;;;8.58;3.60;;;;;;;29.19;45.65;101198.58;1931407;73;21043;-65
2021/09/15 06:33:06;;;;;;;14.18;4.25;;;;;;;29.17;45.35;101205.52;1939263;73;21110;-64
2021/09/15 06:35:35;;;;;;;15.60;5.37;;;;;;;29.23;44.58;101210.28;1934940;74;21138;-65
2021/09/15 06:38:04;;;;;;;15.72;5.97;;;;;;;29.41;43.57;101203.80;1937777;74;21048;-65
2021/09/15 06:40:33;;;;;;;10.25;4.28;;;;;;;29.61;43.64;101214.59;1934687;73;21029;-65
2021/09/15 06:43:02;;;;;;;9.98;4.55;;;;;;;29.71;43.26;101209.48;1931219;73;21066;-65
2021/09/15 06:45:31;;;;;;;6.87;3.95;;;;;;;29.69;42.97;101208.81;1935703;73;21490;-65
2021/09/15 06:47:59;;;;;;;6.83;3.60;;;;;;;29.89;43.39;101206.06;1944885;73;21529;-65
2021/09/15 07:03:38;;;;;;;10.90;4.20;;;;;;;31.51;35.87;101193.41;1960278;72;27911;-63
2021/09/15 07:06:06;;;;;;;8.70;3.77;;;;;;;32.17;36.41;101197.22;1919514;75;21056;-63
2021/09/15 07:08:35;;;;;;;12.68;3.77;;;;;;;32.24;36.31;101200.38;1919433;75;21051;-64
2021/09/15 07:11:04;;;;;;;8.83;4.05;;;;;;;32.32;36.39;101192.08;1919493;75;21556;-63
2021/09/15 07:13:33;;;;;;;10.95;4.00;;;;;;;32.61;36.53;101184.00;1919485;74;21485;-63
2021/09/15 07:16:02;;;;;;;9.25;4.42;;;;;;;32.95;36.31;101185.17;1919595;75;21098;-63
2021/09/15 07:18:30;;;;;;;12.45;3.67;;;;;;;33.04;36.45;101180.73;1919505;74;21129;-63
2021/09/15 07:20:59;;;;;;;11.25;3.42;;;;;;;33.02;35.43;101183.34;1919522;75;21086;-64
2021/09/15 07:23:28;;;;;;;12.23;3.87;;;;;;;33.25;34.87;101181.75;1919417;75;21031;-63
2021/09/15 07:25:57;;;;;;;8.53;2.98;;;;;;;33.46;34.59;101181.70;1919729;75;21008;-63
2021/09/15 07:28:26;;;;;;;10.95;3.67;;;;;;;33.67;34.67;101183.21;1919630;75;21543;-63
2021/09/15 07:30:55;;;;;;;7.67;3.75;;;;;;;33.67;34.36;101190.88;1919509;75;21121;-63
2021/09/15 07:33:24;;;;;;;9.20;3.75;;;;;;;33.50;33.99;101195.78;1919549;74;21024;-63
2021/09/15 07:35:53;;;;;;;4.83;2.98;;;;;;;33.76;34.10;101188.82;1919374;75;21063;-63
2021/09/15 07:38:21;;;;;;;5.97;3.05;;;;;;;34.16;34.03;101180.27;1919573;74;21031;-63
2021/09/15 07:40:51;;;;;;;11.83;3.42;;;;;;;34.15;33.72;101184.03;1896825;75;21055;-63
2021/09/15 07:43:20;;;;;;;8.70;4.22;;;;;;;33.93;33.73;101182.48;1919462;73;21079;-63
2021/09/15 07:45:49;;;;;;;9.43;3.60;;;;;;;33.77;33.44;101183.16;1919601;74;21027;-63
2021/09/15 07:48:17;;;;;;;10.72;4.00;;;;;;;33.67;33.92;101175.02;1919387;75;21062;-63
2021/09/15 07:50:48;;;;;;;8.20;4.25;;;;;;;33.90;33.99;101171.95;1919567;75;21027;-63
2021/09/15 07:53:20;;;;;;;9.15;3.62;;;;;;;33.93;33.74;101167.47;1919467;75;21109;-63
2021/09/15 07:55:50;;;;;;;6.20;4.33;;;;;;;33.82;33.92;101165.63;1919347;74;21200;-63
2021/09/15 07:58:19;;;;;;;10.18;4.03;;;;;;;33.99;33.97;101163.41;1919483;75;21027;-63
2021/09/15 08:00:48;;;;;;;11.50;3.92;;;;;;;34.12;34.19;101157.11;1919446;75;21043;-63
2021/09/15 08:03:16;;;;;;;14.90;4.22;;;;;;;34.60;33.93;101157.05;1919459;74;21149;-63
2021/09/15 08:05:45;;;;;;;8.38;3.62;;;;;;;34.77;33.65;101154.77;1918883;75;21051;-63
2021/09/15 08:08:14;;;;;;;9.38;3.10;;;;;;;34.97;33.24;101146.56;1918808;75;21059;-63
2021/09/15 08:10:43;;;;;;;10.68;3.90;;;;;;;34.98;32.64;101153.70;1918882;75;21031;-63
2021/09/15 08:13:12;;;;;;;7.97;3.67;;;;;;;35.17;32.39;101143.80;1918714;75;21485;-64
2021/09/15 08:15:40;;;;;;;11.83;3.40;;;;;;;35.53;32.11;101139.73;1918823;75;21100;-64
2021/09/15 08:18:09;;;;;;;6.45;2.77;;;;;;;35.69;31.86;101141.19;1918869;74;21090;-63
2021/09/15 08:20:38;;;;;;;5.95;2.60;;;;;;;35.47;30.75;101139.73;1918846;74;21133;-63
2021/09/15 08:23:07;;;;;;;6.90;2.85;;;;;;;35.48;30.93;101140.90;1918812;75;21482;-63
2021/09/15 08:25:36;;;;;;;7.90;2.80;;;;;;;35.18;30.02;101137.80;1918967;75;21027;-63
2021/09/15 08:28:06;;;;;;;8.93;3.22;;;;;;;35.15;30.52;101138.21;1918725;73;21203;-64
2021/09/15 08:30:35;;;;;;;5.55;2.60;;;;;;;35.18;30.55;101132.33;1918896;75;21093;-63
2021/09/15 08:33:04;;;;;;;6.92;3.02;;;;;;;35.35;30.25;101135.47;1918830;74;21048;-63
2021/09/15 08:35:32;;;;;;;6.37;3.17;;;;;;;35.35;30.34;101132.20;1918834;75;21024;-63
2021/09/15 08:38:01;;;;;;;7.90;3.15;;;;;;;35.31;30.25;101125.48;1918791;75;21486;-63
2021/09/15 08:40:30;;;;;;;5.50;2.60;;;;;;;35.32;30.50;101124.44;1918860;74;21071;-63
2021/09/15 08:42:59;;;;;;;10.38;3.40;;;;;;;35.52;30.75;101120.77;1918819;75;21008;-63
2021/09/15 08:45:27;;;;;;;9.38;3.52;;;;;;;35.32;31.21;101124.44;1918804;75;21027;-63
2021/09/15 08:47:57;;;;;;;8.43;3.50;;;;;;;35.57;30.76;101116.86;1918953;74;21101;-63
2021/09/15 08:50:27;;;;;;;10.38;3.60;;;;;;;35.50;30.49;101127.00;1918837;75;21527;-63
2021/09/15 08:52:56;;;;;;;7.53;3.45;;;;;;;35.97;29.68;101104.39;1918691;74;21047;-63
2021/09/15 08:55:25;;;;;;;6.85;2.92;;;;;;;35.97;29.68;101104.39;1918829;75;21059;-63
2021/09/15 08:57:54;;;;;;;8.43;3.40;;;;;;;36.19;30.17;101115.02;1918875;75;21519;-63
2021/09/15 09:00:22;;;;;;;6.85;3.05;;;;;;;36.17;29.90;101114.38;1918791;75;21023;-63
2021/09/15 09:02:53;;;;;;;14.20;3.60;;;;;;;36.21;29.77;101154.88;1918716;74;21059;-64
2021/09/15 09:05:22;;;;;;;5.83;2.55;;;;;;;36.02;30.14;101112.77;1918693;75;21039;-63
2021/09/15 09:07:51;;;;;;;4.70;2.70;;;;;;;35.42;30.36;101114.93;1918780;75;21414;-63
2021/09/15 09:10:19;;;;;;;6.20;2.90;;;;;;;35.42;30.36;101114.93;1918825;75;21121;-63
2021/09/15 09:12:48;;;;;;;6.30;3.33;;;;;;;35.12;30.99;101115.37;1919002;75;21035;-63
2021/09/15 09:15:25;;;;;;;7.03;3.17;;;;;;;35.21;31.02;101115.48;1918868;75;21113;-63
2021/09/15 09:18:00;;;;;;;10.35;3.55;;;;;;;34.93;31.16;101116.55;1917210;74;21087;-63
2021/09/15 09:20:35;;;;;;;4.00;2.70;;;;;;;35.19;31.18;101118.97;1918997;75;21032;-63
2021/09/15 09:23:20;;;;;;;9.43;2.98;;;;;;;35.56;30.91;101112.44;1918834;73;21121;-63
2021/09/15 09:26:00;;;;;;;5.55;2.60;;;;;;;35.69;30.99;101112.44;1918786;75;21004;-63
2021/09/15 09:28:33;;;;;;;6.92;2.70;;;;;;;35.46;31.08;101110.70;1918676;74;21027;-63
2021/09/15 09:31:07;;;;;;;8.95;3.40;;;;;;;35.46;31.08;101110.70;1918810;73;21049;-63
2021/09/15 09:33:41;;;;;;;6.80;3.08;;;;;;;35.51;30.56;101103.52;1917848;74;21071;-63
2021/09/15 09:36:11;;;;;;;7.67;3.35;;;;;;;35.80;30.82;101108.68;1918838;75;21473;-63
2021/09/15 09:38:45;;;;;;;4.15;2.50;;;;;;;35.98;30.56;101095.09;1918846;75;21007;-63
2021/09/15 09:41:20;;;;;;;5.15;2.60;;;;;;;36.24;30.03;101115.20;1918574;74;21062;-63
2021/09/15 09:43:56;;;;;;;4.33;2.90;;;;;;;36.10;29.51;101092.50;1918479;74;21138;-63
2021/09/15 09:46:41;;;;;;;6.28;2.83;;;;;;;35.56;29.23;101097.38;1918914;75;21035;-64
2021/09/15 09:49:09;;;;;;;8.85;2.62;;;;;;;35.23;30.11;101098.35;1917378;74;21087;-64
2021/09/15 09:51:41;;;;;;;3.95;2.70;;;;;;;35.36;29.80;101097.47;1919045;75;21591;-63
2021/09/15 09:54:19;;;;;;;8.18;3.35;;;;;;;34.94;29.55;101093.63;1918830;73;21859;-63
2021/09/15 09:56:51;;;;;;;4.83;2.60;;;;;;;34.72;29.79;101090.28;1918798;75;21098;-63
2021/09/15 09:59:21;;;;;;;7.60;2.70;;;;;;;34.56;29.84;101092.88;1918803;74;21117;-63
2021/09/15 10:01:53;;;;;;;5.67;2.55;;;;;;;34.44;30.07;101093.20;1918887;75;21572;-63
2021/09/15 10:04:22;;;;;;;6.45;2.62;;;;;;;34.12;30.71;101084.70;1918803;74;21556;-63
2021/09/15 10:06:52;;;;;;;9.25;3.08;;;;;;;34.11;31.27;101080.84;1918779;75;21087;-63
2021/09/15 10:09:23;;;;;;;6.42;2.95;;;;;;;34.35;31.79;101074.80;1918780;75;21082;-63
2021/09/15 10:11:52;;;;;;;9.28;2.60;;;;;;;34.49;31.83;101077.53;1918763;75;21008;-63
2021/09/15 10:14:21;;;;;;;6.67;2.90;;;;;;;34.33;31.52;101081.53;1918762;75;21071;-63
2021/09/15 10:16:53;;;;;;;7.55;3.15;;;;;;;34.31;32.13;101073.54;1918785;75;21078;-63
2021/09/15 10:19:33;;;;;;;6.80;3.45;;;;;;;34.49;32.28;101078.39;1918910;74;21059;-63
2021/09/15 10:22:05;;;;;;;6.05;3.22;;;;;;;34.71;31.89;101069.98;1918798;75;21003;-63
2021/09/15 10:24:51;;;;;;;7.80;2.85;;;;;;;34.63;31.94;101069.64;1918838;75;21101;-63
2021/09/15 10:27:22;;;;;;;9.53;4.17;;;;;;;34.53;32.17;101067.34;1918779;75;21442;-64
2021/09/15 10:30:11;;;;;;;9.93;4.03;;;;;;;34.57;32.53;101061.77;1919010;74;21040;-63
2021/09/15 10:32:48;;;;;;;9.80;3.70;;;;;;;34.61;32.15;101057.55;1918857;75;21007;-63
2021/09/15 10:35:32;;;;;;;7.50;2.98;;;;;;;34.56;32.07;101051.86;1918807;75;21458;-63
2021/09/15 10:38:00;;;;;;;5.40;2.62;;;;;;;34.69;31.59;101055.68;1878519;74;21550;-63
2021/09/15 10:40:31;;;;;;;6.60;2.58;;;;;;;34.18;30.99;101051.14;1918755;75;21027;-63
2021/09/15 10:43:00;;;;;;;4.35;2.90;;;;;;;33.70;31.40;101055.31;1918915;75;21031;-63
2021/09/15 10:45:31;;;;;;;6.28;3.25;;;;;;;33.59;32.15;101050.42;1918783;73;21106;-64
2021/09/15 10:48:13;;;;;;;11.13;3.23;;;;;;;33.64;32.19;101042.44;1919139;75;21024;-63
2021/09/15 10:50:44;;;;;;;4.03;2.60;;;;;;;33.46;32.16;101042.48;1918875;74;21095;-63
2021/09/15 10:53:16;;;;;;;4.77;3.13;;;;;;;33.29;32.84;101042.50;1918988;75;21102;-63
2021/09/15 10:55:50;;;;;;;7.28;3.35;;;;;;;32.92;32.55;101035.56;1918750;75;21000;-63
2021/09/15 10:58:25;;;;;;;9.63;3.35;;;;;;;32.75;32.75;101040.48;1918851;75;21047;-63
2021/09/15 11:00:56;;;;;;;4.58;2.80;;;;;;;32.80;33.06;101032.56;1918757;74;21044;-63
2021/09/15 11:03:38;;;;;;;4.60;2.87;;;;;;;32.51;33.77;101030.31;1918747;75;21056;-63
2021/09/15 11:06:15;;;;;;;12.30;3.57;;;;;;;32.25;34.06;101024.13;1918952;74;21141;-63
2021/09/15 11:08:47;;;;;;;3.50;2.50;;;;;;;31.91;34.45;101033.31;1918737;75;21118;-63
2021/09/15 11:11:28;;;;;;;7.42;3.10;;;;;;;31.79;34.47;101030.77;1918169;74;21089;-63
2021/09/15 11:14:05;;;;;;;4.70;2.92;;;;;;;31.49;34.54;101025.41;1918699;75;20995;-63
2021/09/15 11:16:41;;;;;;;6.08;3.17;;;;;;;31.48;34.74;101025.06;1918727;75;21418;-64
2021/09/15 11:19:18;;;;;;;7.53;2.80;;;;;;;31.52;34.83;101021.45;1918703;74;21028;-63
2021/09/15 11:21:51;;;;;;;4.83;2.98;;;;;;;31.36;34.60;101014.33;1918801;75;21089;-63
2021/09/15 11:24:25;;;;;;;7.05;3.77;;;;;;;31.06;35.01;101021.66;1918873;75;21028;-63
2021/09/15 11:26:59;;;;;;;6.40;3.05;;;;;;;30.82;36.10;101017.31;1918694;74;21016;-63
2021/09/15 11:29:43;;;;;;;9.43;3.55;;;;;;;30.42;36.63;101016.70;1918627;75;21107;-63
2021/09/15 11:32:17;;;;;;;6.75;3.77;;;;;;;29.80;37.57;101017.13;1918702;75;21082;-63
2021/09/15 11:34:54;;;;;;;9.55;4.25;;;;;;;29.28;38.67;101017.20;1918653;73;21117;-63
2021/09/15 11:37:31;;;;;;;12.90;4.17;;;;;;;29.08;39.34;101014.03;1918670;75;21105;-63
2021/09/15 11:40:03;;;;;;;6.87;3.83;;;;;;;29.02;39.98;101006.61;1918845;75;21470;-63
2021/09/15 11:42:36;;;;;;;7.37;4.00;;;;;;;29.00;40.21;101005.94;1917496;74;21471;-63
2021/09/15 11:45:20;;;;;;;6.35;3.50;;;;;;;29.00;40.33;101007.30;1918837;75;21012;-63
2021/09/15 11:47:51;;;;;;;8.73;3.62;;;;;;;28.87;40.34;101009.20;1918876;75;21497;-63
2021/09/15 11:50:27;;;;;;;8.23;3.55;;;;;;;28.70;40.42;101012.45;1918796;74;21160;-63
2021/09/15 11:55:42;;;;;;;11.70;4.15;;;;;;;28.23;41.59;101001.78;1918798;75;21493;-63
2021/09/15 11:58:05;;;;;;;9.85;4.00;;;;;;;28.22;42.19;101004.66;1917224;74;21036;-63
2021/09/15 12:00:35;;;;;;;8.73;4.25;;;;;;;28.27;42.42;100995.52;1918682;75;21450;-63
2021/09/15 12:03:06;;;;;;;11.20;4.50;;;;;;;28.33;42.23;100996.22;1918792;74;21176;-63
2021/09/15 12:05:36;;;;;;;6.47;4.45;;;;;;;28.36;42.06;100986.37;1923265;74;21505;-63
2021/09/15 12:08:08;;;;;;;8.08;3.72;;;;;;;28.35;42.14;100991.47;1895252;74;21042;-63
2021/09/15 12:10:37;;;;;;;10.20;4.10;;;;;;;28.26;42.35;100987.91;1891827;75;21451;-63
2021/09/15 12:13:06;;;;;;;10.50;3.75;;;;;;;27.97;42.47;100988.41;1857816;77;21112;-64
2021/09/15 12:15:47;;;;;;;11.22;4.47;;;;;;;27.70;42.61;100986.33;1872614;77;21098;-63
2021/09/15 12:18:16;;;;;;;13.28;4.72;;;;;;;27.42;42.99;100990.30;1872719;77;21040;-63
2021/09/15 12:20:47;;;;;;;12.88;4.22;;;;;;;27.23;43.33;100985.47;1872712;76;21126;-63
2021/09/15 12:23:19;;;;;;;8.03;4.45;;;;;;;27.12;43.54;100985.77;1872788;76;21117;-63
2021/09/15 12:25:54;;;;;;;8.25;4.08;;;;;;;27.04;43.70;100978.47;1872697;76;21103;-63